createdAt,value
2023-03-06T00:00:24.688Z,98559.00
2023-03-06T00:02:52.178Z,98555.75
2023-03-06T00:05:20.279Z,98551.75
2023-03-06T00:07:46.830Z,98557.03
2023-03-06T00:10:17.030Z,98556.09
2023-03-06T00:12:43.592Z,98553.31
2023-03-06T00:15:10.848Z,98546.75
2023-03-06T00:17:38.095Z,98548.16
2023-03-06T00:20:06.248Z,98541.69
2023-03-06T00:22:33.095Z,98539.50
2023-03-06T00:24:59.606Z,98538.00
2023-03-06T00:27:26.303Z,98530.59
2023-03-06T00:29:57.322Z,98538.78
2023-03-06T00:32:24.375Z,98530.47
2023-03-06T00:34:53.584Z,98534.50
2023-03-06T00:37:22.470Z,98533.38
2023-03-06T00:39:50.000Z,98523.53
2023-03-06T00:42:18.362Z,98517.19
2023-03-06T00:44:45.915Z,98521.00
2023-03-06T00:47:13.779Z,98513.66
2023-03-06T00:49:40.136Z,98517.81
2023-03-06T00:52:07.106Z,98528.50
2023-03-06T00:54:33.528Z,98513.34
2023-03-06T00:57:00.073Z,98506.19
2023-03-06T00:59:27.627Z,98506.47
2023-03-06T01:01:54.744Z,98506.00
2023-03-06T01:04:21.348Z,98505.16
2023-03-06T01:06:48.391Z,98498.63
2023-03-06T01:09:14.796Z,98496.28
2023-03-06T01:11:42.035Z,98496.84
2023-03-06T01:14:08.457Z,98504.38
2023-03-06T01:16:35.209Z,98490.81
2023-03-06T01:19:01.909Z,98492.75
2023-03-06T01:21:28.619Z,98497.16
2023-03-06T01:23:55.105Z,98490.63
2023-03-06T01:26:22.125Z,98484.06
2023-03-06T01:28:48.883Z,98483.31
2023-03-06T01:31:15.385Z,98479.00
2023-03-06T01:33:41.917Z,98473.19
2023-03-06T01:36:11.275Z,98476.69
2023-03-06T01:38:38.548Z,98471.94
2023-03-06T01:41:05.809Z,98467.81
2023-03-06T01:43:44.584Z,98467.81
2023-03-06T01:46:32.631Z,98460.94
2023-03-06T01:49:04.281Z,98468.00
2023-03-06T01:51:35.744Z,98458.50
2023-03-06T01:54:11.337Z,98452.16
2023-03-06T01:56:40.584Z,98457.34
2023-03-06T01:59:07.677Z,98451.41
2023-03-06T02:01:35.296Z,98446.88
2023-03-06T02:04:02.165Z,98445.91
2023-03-06T02:06:29.022Z,98439.91
2023-03-06T02:08:56.347Z,98444.22
2023-03-06T02:11:25.650Z,98447.50
2023-03-06T02:13:54.784Z,98437.78
2023-03-06T02:16:28.015Z,98430.59
2023-03-06T02:18:55.260Z,98431.63
2023-03-06T02:21:25.676Z,98432.06
2023-03-06T02:24:08.869Z,98428.56
2023-03-06T02:26:36.878Z,98427.09
2023-03-06T02:29:07.215Z,98425.81
2023-03-06T02:31:35.489Z,98416.19
2023-03-06T02:34:14.568Z,98409.53
2023-03-06T02:36:47.220Z,98410.91
2023-03-06T02:39:15.430Z,98408.88
2023-03-06T02:41:41.978Z,98414.06
2023-03-06T02:44:11.218Z,98409.75
2023-03-06T02:46:37.730Z,98409.91
2023-03-06T02:49:04.166Z,98396.69
2023-03-06T02:51:30.757Z,98403.06
2023-03-06T02:53:57.602Z,98386.91
2023-03-06T02:56:24.186Z,98394.81
2023-03-06T02:58:50.829Z,98389.53
2023-03-06T03:01:17.676Z,98393.16
2023-03-06T03:03:45.121Z,98392.19
2023-03-06T03:06:11.813Z,98384.84
2023-03-06T03:08:38.321Z,98384.34
2023-03-06T03:11:05.220Z,98386.09
2023-03-06T03:13:32.561Z,98381.25
2023-03-06T03:16:06.179Z,98378.06
2023-03-06T03:18:32.850Z,98378.69
2023-03-06T03:21:00.825Z,98373.19
2023-03-06T03:23:27.587Z,98370.66
2023-03-06T03:25:54.780Z,98374.81
2023-03-06T03:28:21.184Z,98379.38
2023-03-06T03:30:48.235Z,98373.47
2023-03-06T03:33:15.016Z,98370.72
2023-03-06T03:35:41.853Z,98368.91
2023-03-06T03:38:08.563Z,98367.22
2023-03-06T03:40:34.958Z,98368.06
2023-03-06T03:43:01.831Z,98368.69
2023-03-06T03:45:28.297Z,98361.19
2023-03-06T03:47:54.973Z,98361.56
2023-03-06T03:50:21.542Z,98357.03
2023-03-06T03:52:47.981Z,98355.28
2023-03-06T03:55:14.992Z,98354.50
2023-03-06T03:57:43.009Z,98349.56
2023-03-06T04:00:14.784Z,98346.56
2023-03-06T04:02:41.569Z,98344.22
2023-03-06T04:05:08.612Z,98331.78
2023-03-06T04:07:35.116Z,98334.31
2023-03-06T04:10:02.099Z,98329.97
2023-03-06T04:12:28.568Z,98328.91
2023-03-06T04:14:55.111Z,98329.66
2023-03-06T04:17:21.524Z,98326.09
2023-03-06T04:19:47.913Z,98322.16
2023-03-06T04:22:14.430Z,98326.28
2023-03-06T04:24:40.821Z,98323.53
2023-03-06T04:27:07.686Z,98318.44
2023-03-06T04:29:34.112Z,98318.16
2023-03-06T04:32:02.640Z,98312.75
2023-03-06T04:34:29.047Z,98316.25
2023-03-06T04:36:55.831Z,98312.53
2023-03-06T04:39:23.331Z,98316.50
2023-03-06T04:41:49.809Z,98309.34
2023-03-06T04:44:16.613Z,98312.16
2023-03-06T04:46:43.043Z,98307.19
2023-03-06T04:49:09.496Z,98308.16
2023-03-06T04:51:39.190Z,98302.97
2023-03-06T04:54:05.800Z,98305.25
2023-03-06T04:56:34.262Z,98295.56
2023-03-06T04:59:01.922Z,98297.53
2023-03-06T05:01:28.312Z,98293.69
2023-03-06T05:03:54.868Z,98291.63
2023-03-06T05:06:21.326Z,98287.63
2023-03-06T05:08:47.928Z,98288.53
2023-03-06T05:11:14.377Z,98290.00
2023-03-06T05:13:41.052Z,98284.38
2023-03-06T05:16:08.128Z,98282.88
2023-03-06T05:18:35.492Z,98272.78
2023-03-06T05:21:02.664Z,98281.31
2023-03-06T05:23:30.642Z,98275.69
2023-03-06T05:25:58.715Z,98268.53
2023-03-06T05:28:25.975Z,98266.88
2023-03-06T05:30:52.436Z,98267.72
2023-03-06T05:33:19.245Z,98268.31
2023-03-06T05:35:47.826Z,98271.81
2023-03-06T05:38:15.655Z,98266.00
2023-03-06T05:40:43.839Z,98267.81
2023-03-06T05:43:11.841Z,98271.03
2023-03-06T05:45:39.538Z,98266.25
2023-03-06T05:48:06.498Z,98263.63
2023-03-06T05:50:33.349Z,98278.22
2023-03-06T05:52:59.748Z,98276.84
2023-03-06T05:55:26.304Z,98286.09
2023-03-06T05:57:53.870Z,98284.47
2023-03-06T06:00:21.444Z,98274.72
2023-03-06T06:02:48.224Z,98284.25
2023-03-06T06:05:14.848Z,98287.84
2023-03-06T06:07:42.062Z,98285.81
2023-03-06T06:10:10.813Z,98287.16
2023-03-06T06:12:38.050Z,98285.94
2023-03-06T06:15:06.405Z,98282.13
2023-03-06T06:17:32.847Z,98282.75
2023-03-06T06:19:59.566Z,98288.41
2023-03-06T06:22:26.015Z,98279.13
2023-03-06T06:24:52.589Z,98279.22
2023-03-06T06:27:18.970Z,98267.63
2023-03-06T06:29:45.906Z,98273.50
2023-03-06T06:32:12.332Z,98269.78
2023-03-06T06:34:38.784Z,98271.09
2023-03-06T06:37:05.499Z,98275.84
2023-03-06T06:39:32.092Z,98271.88
2023-03-06T06:42:19.472Z,98275.03
2023-03-06T06:44:45.065Z,98271.56
2023-03-06T06:47:22.889Z,98275.34
2023-03-06T06:49:52.660Z,98274.91
2023-03-06T06:52:19.114Z,98266.25
2023-03-06T06:54:46.636Z,98271.78
2023-03-06T06:57:13.172Z,98271.31
2023-03-06T06:59:40.041Z,98268.44
2023-03-06T07:02:07.111Z,98265.69
2023-03-06T07:04:33.972Z,98262.66
2023-03-06T07:07:01.074Z,98265.19
2023-03-06T07:09:27.694Z,98272.53
2023-03-06T07:11:54.190Z,98281.16
2023-03-06T07:14:21.786Z,98277.97
2023-03-06T07:16:48.230Z,98278.50
2023-03-06T07:19:14.700Z,98279.09
2023-03-06T07:21:41.192Z,98285.31
2023-03-06T07:24:07.672Z,98276.97
2023-03-06T07:26:34.997Z,98282.50
2023-03-06T07:29:02.521Z,98281.03
2023-03-06T07:31:29.114Z,98285.03
2023-03-06T07:33:56.151Z,98290.31
2023-03-06T07:36:23.936Z,98289.41
2023-03-06T07:38:50.741Z,98285.59
2023-03-06T07:41:20.438Z,98284.88
2023-03-06T07:43:48.755Z,98285.59
2023-03-06T07:46:15.378Z,98281.31
2023-03-06T07:48:42.593Z,98284.91
2023-03-06T07:51:20.750Z,98277.56
2023-03-06T07:53:48.134Z,98279.56
2023-03-06T07:56:14.854Z,98279.97
2023-03-06T07:58:44.110Z,98285.72
2023-03-06T08:01:14.301Z,98284.06
2023-03-06T08:03:40.827Z,98291.03
2023-03-06T08:06:16.310Z,98285.63
2023-03-06T08:08:44.468Z,98277.53
2023-03-06T08:11:13.331Z,98284.97
2023-03-06T08:13:40.307Z,98288.22
2023-03-06T08:16:07.474Z,98286.91
2023-03-06T08:18:34.613Z,98288.38
2023-03-06T08:21:13.116Z,98287.16
2023-03-06T08:23:40.764Z,98286.56
2023-03-06T08:26:12.831Z,98296.16
2023-03-06T08:28:39.488Z,98284.03
2023-03-06T08:31:14.705Z,98292.69
2023-03-06T08:33:41.327Z,98288.13
2023-03-06T08:36:07.949Z,98289.47
2023-03-06T08:38:34.657Z,98292.13
2023-03-06T08:41:01.331Z,98282.03
2023-03-06T08:43:27.856Z,98285.41
2023-03-06T08:45:56.123Z,98290.03
2023-03-06T08:48:22.997Z,98281.47
2023-03-06T08:50:49.639Z,98289.66
2023-03-06T08:53:16.286Z,98290.13
2023-03-06T08:55:42.770Z,98284.59
2023-03-06T08:58:09.464Z,98280.28
2023-03-06T09:00:36.764Z,98285.94
2023-03-06T09:03:03.919Z,98280.78
2023-03-06T09:05:30.807Z,98284.50
2023-03-06T09:07:58.088Z,98283.69
2023-03-06T09:10:26.237Z,98284.75
2023-03-06T09:12:54.986Z,98286.56
2023-03-06T09:15:22.663Z,98283.53
2023-03-06T09:17:49.624Z,98283.19
2023-03-06T09:20:16.922Z,98290.88
2023-03-06T09:22:45.859Z,98287.50
2023-03-06T09:25:14.160Z,98281.25
2023-03-06T09:27:41.039Z,98280.41
2023-03-06T09:30:08.492Z,98283.41
2023-03-06T09:32:34.942Z,98284.13
2023-03-06T09:35:01.431Z,98287.63
2023-03-06T09:37:27.830Z,98282.19
2023-03-06T09:39:54.283Z,98278.84
2023-03-06T09:42:23.631Z,98275.94
2023-03-06T09:44:55.851Z,98280.75
2023-03-06T09:47:47.411Z,98283.16
2023-03-06T09:50:19.609Z,98277.59
2023-03-06T09:53:03.743Z,98274.63
2023-03-06T09:55:37.983Z,98274.34
2023-03-06T09:58:17.744Z,98269.75
2023-03-06T10:00:59.321Z,98271.22
2023-03-06T10:03:44.599Z,98270.75
2023-03-06T10:06:14.174Z,98266.22
2023-03-06T10:08:57.976Z,98267.16
2023-03-06T10:11:42.843Z,98267.75
2023-03-06T10:14:21.400Z,98260.44
2023-03-06T10:16:48.370Z,98268.66
2023-03-06T10:19:18.867Z,98269.81
2023-03-06T10:21:50.883Z,98264.75
2023-03-06T10:24:25.097Z,98270.16
2023-03-06T10:27:14.634Z,98272.81
2023-03-06T10:30:02.821Z,98272.59
2023-03-06T10:32:51.068Z,98266.69
2023-03-06T10:35:22.364Z,98272.94
2023-03-06T10:37:49.211Z,98273.19
2023-03-06T10:40:22.043Z,98266.03
2023-03-06T10:42:52.062Z,98268.78
2023-03-06T10:45:22.638Z,98277.22
2023-03-06T10:47:49.451Z,98267.63
2023-03-06T10:50:28.522Z,98262.66
2023-03-06T10:53:05.531Z,98264.97
2023-03-06T10:55:37.575Z,98258.91
2023-03-06T10:58:32.496Z,98263.69
2023-03-06T11:01:07.116Z,98259.03
2023-03-06T11:03:35.707Z,98252.31
2023-03-06T11:06:12.277Z,98253.53
2023-03-06T11:08:41.574Z,98248.41
2023-03-06T11:11:12.530Z,98250.06
2023-03-06T11:13:41.864Z,98253.25
2023-03-06T11:16:25.874Z,98246.84
2023-03-06T11:19:05.220Z,98242.84
2023-03-06T11:21:35.153Z,98246.34
2023-03-06T11:24:09.150Z,98245.50
2023-03-06T11:26:43.674Z,98236.53
2023-03-06T11:29:38.454Z,98245.22
2023-03-06T11:32:15.290Z,98241.06
2023-03-06T11:34:50.571Z,98226.72
2023-03-06T11:37:32.582Z,98231.50
2023-03-06T11:40:11.450Z,98227.06
2023-03-06T11:42:53.179Z,98217.25
2023-03-06T11:45:27.429Z,98217.03
2023-03-06T11:48:15.923Z,98212.31
2023-03-06T11:50:49.125Z,98216.53
2023-03-06T11:53:19.323Z,98210.38
2023-03-06T11:56:20.204Z,98205.91
2023-03-06T11:59:14.344Z,98197.25
2023-03-06T12:01:50.073Z,98202.81
2023-03-06T12:04:49.258Z,98198.94
2023-03-06T12:07:15.602Z,98189.84
2023-03-06T12:09:47.093Z,98191.94
2023-03-06T12:12:37.249Z,98193.19
2023-03-06T12:15:27.042Z,98187.03
2023-03-06T12:18:18.047Z,98194.19
2023-03-06T12:20:54.438Z,98179.47
2023-03-06T12:24:03.517Z,98174.56
2023-03-06T12:27:18.463Z,98181.00
2023-03-06T12:29:44.940Z,98173.44
2023-03-06T12:32:40.898Z,98181.25
2023-03-06T12:35:30.173Z,98175.19
2023-03-06T12:38:24.046Z,98185.66
2023-03-06T12:41:18.559Z,98178.66
2023-03-06T12:44:16.941Z,98184.25
2023-03-06T12:46:54.950Z,98181.16
2023-03-06T12:49:32.908Z,98169.56
2023-03-06T12:52:01.213Z,98173.38
2023-03-06T12:54:30.517Z,98182.88
2023-03-06T12:56:59.748Z,98178.38
2023-03-06T12:59:44.558Z,98174.19
2023-03-06T13:02:33.982Z,98171.38
2023-03-06T13:05:13.034Z,98173.38
2023-03-06T13:08:02.068Z,98175.31
2023-03-06T13:10:32.045Z,98171.97
2023-03-06T13:13:01.471Z,98171.09
2023-03-06T13:15:38.730Z,98169.41
2023-03-06T13:18:23.491Z,98162.28
2023-03-06T13:20:55.875Z,98157.09
2023-03-06T13:23:42.624Z,98165.44
2023-03-06T13:26:09.077Z,98158.72
2023-03-06T13:28:50.356Z,98161.19
2023-03-06T13:31:54.600Z,98150.31
2023-03-06T13:34:41.402Z,98150.13
2023-03-06T13:37:14.314Z,98145.47
2023-03-06T13:39:55.734Z,98148.72
2023-03-06T13:42:34.206Z,98155.72
2023-03-06T13:45:17.212Z,98162.84
2023-03-06T13:48:10.968Z,98149.19
2023-03-06T13:50:39.794Z,98156.66
2023-03-06T13:53:24.850Z,98158.28
2023-03-06T13:56:04.220Z,98151.72
2023-03-06T13:58:38.373Z,98148.69
2023-03-06T14:01:28.129Z,98147.03
2023-03-06T14:04:00.314Z,98140.34
2023-03-06T14:06:53.008Z,98147.81
2023-03-06T14:09:44.346Z,98147.13
2023-03-06T14:12:28.501Z,98145.16
2023-03-06T14:15:02.787Z,98141.03
2023-03-06T14:17:30.686Z,98139.34
2023-03-06T14:20:20.849Z,98133.84
2023-03-06T14:22:47.308Z,98138.63
2023-03-06T14:25:31.189Z,98137.19
2023-03-06T14:28:05.713Z,98139.84
2023-03-06T14:30:49.335Z,98136.88
2023-03-06T14:33:46.409Z,98131.28
2023-03-06T14:36:15.927Z,98132.81
2023-03-06T14:38:54.588Z,98128.25
2023-03-06T14:41:35.008Z,98128.06
2023-03-06T14:44:28.292Z,98124.19
2023-03-06T14:46:56.966Z,98132.69
2023-03-06T14:49:25.595Z,98136.47
2023-03-06T14:52:00.429Z,98125.16
2023-03-06T14:54:32.585Z,98118.00
2023-03-06T14:57:13.040Z,98118.66
2023-03-06T14:59:44.811Z,98122.31
2023-03-06T15:02:18.718Z,98125.66
2023-03-06T15:04:51.221Z,98120.75
2023-03-06T15:07:22.531Z,98118.47
2023-03-06T15:09:51.975Z,98117.00
2023-03-06T15:12:18.460Z,98118.66
2023-03-06T15:15:02.665Z,98116.41
2023-03-06T15:17:30.496Z,98113.03
2023-03-06T15:19:59.659Z,98111.47
2023-03-06T15:22:40.116Z,98113.59
2023-03-06T15:25:31.819Z,98114.13
2023-03-06T15:28:00.135Z,98126.13
2023-03-06T15:30:30.223Z,98120.13
2023-03-06T15:33:26.156Z,98120.81
2023-03-06T15:35:54.897Z,98117.75
2023-03-06T15:38:31.410Z,98117.00
2023-03-06T15:41:00.649Z,98121.44
2023-03-06T15:43:32.058Z,98126.50
2023-03-06T15:46:01.063Z,98130.91
2023-03-06T15:48:28.665Z,98127.25
2023-03-06T15:50:55.142Z,98143.22
2023-03-06T15:53:22.087Z,98152.09
2023-03-06T15:55:50.053Z,98142.97
2023-03-06T15:58:20.598Z,98148.47
2023-03-06T16:00:47.203Z,98151.28
2023-03-06T16:03:13.652Z,98150.34
2023-03-06T16:05:40.154Z,98157.13
2023-03-06T16:08:06.743Z,98148.69
2023-03-06T16:10:37.800Z,98147.84
2023-03-06T16:13:08.839Z,98156.91
2023-03-06T16:15:39.567Z,98145.81
2023-03-06T16:18:06.764Z,98143.66
2023-03-06T16:20:36.495Z,98144.91
2023-03-06T16:23:07.743Z,98144.13
2023-03-06T16:25:34.606Z,98146.75
2023-03-06T16:28:03.139Z,98144.22
2023-03-06T16:30:32.134Z,98145.59
2023-03-06T16:32:59.048Z,98151.03
2023-03-06T16:35:27.115Z,98139.19
2023-03-06T16:37:54.009Z,98140.06
2023-03-06T16:40:25.499Z,98137.16
2023-03-06T16:42:54.065Z,98133.28
2023-03-06T16:45:22.933Z,98134.63
2023-03-06T16:47:50.062Z,98129.22
2023-03-06T16:50:28.063Z,98136.44
2023-03-06T16:52:56.849Z,98134.88
2023-03-06T16:55:25.448Z,98132.94
2023-03-06T16:57:52.012Z,98128.00
2023-03-06T17:00:20.285Z,98123.44
2023-03-06T17:02:50.937Z,98126.09
2023-03-06T17:05:18.738Z,98125.00
2023-03-06T17:07:46.490Z,98122.59
2023-03-06T17:10:15.366Z,98120.06
2023-03-06T17:12:42.840Z,98110.09
2023-03-06T17:15:11.262Z,98115.66
2023-03-06T17:17:38.057Z,98129.13
2023-03-06T17:20:06.998Z,98119.66
2023-03-06T17:22:35.302Z,98122.06
2023-03-06T17:25:03.371Z,98113.41
2023-03-06T17:27:30.090Z,98111.72
2023-03-06T17:29:58.103Z,98112.69
2023-03-06T17:32:25.190Z,98104.16
2023-03-06T17:34:53.994Z,98110.78
2023-03-06T17:37:21.017Z,98111.91
2023-03-06T17:39:47.827Z,98120.69
2023-03-06T17:42:14.249Z,98126.47
2023-03-06T17:44:41.368Z,98126.00
2023-03-06T17:47:08.161Z,98128.66
2023-03-06T17:49:34.753Z,98119.00
2023-03-06T17:52:02.814Z,98117.34
2023-03-06T17:54:30.042Z,98125.28
2023-03-06T17:57:00.902Z,98113.84
2023-03-06T17:59:28.855Z,98115.66
2023-03-06T18:01:58.927Z,98118.53
2023-03-06T18:04:27.244Z,98116.00
2023-03-06T18:06:54.007Z,98104.59
2023-03-06T18:09:20.596Z,98104.81
2023-03-06T18:11:47.406Z,98110.94
2023-03-06T18:14:13.949Z,98112.53
2023-03-06T18:16:41.045Z,98104.81
2023-03-06T18:19:09.814Z,98104.72
2023-03-06T18:21:36.517Z,98099.75
2023-03-06T18:24:03.004Z,98096.16
2023-03-06T18:26:30.002Z,98092.56
2023-03-06T18:29:01.835Z,98087.28
2023-03-06T18:31:34.920Z,98084.13
2023-03-06T18:34:07.983Z,98074.53
2023-03-06T18:36:36.412Z,98072.72
2023-03-06T18:39:05.877Z,98077.41
2023-03-06T18:41:32.363Z,98081.00
2023-03-06T18:44:01.150Z,98080.19
2023-03-06T18:46:34.258Z,98078.38
2023-03-06T18:49:01.541Z,98080.53
2023-03-06T18:51:28.011Z,98082.72
2023-03-06T18:53:59.637Z,98080.75
2023-03-06T18:56:26.703Z,98085.56
2023-03-06T18:58:54.138Z,98090.88
2023-03-06T19:01:22.198Z,98080.06
2023-03-06T19:03:49.883Z,98083.88
2023-03-06T19:06:17.551Z,98083.63
2023-03-06T19:08:44.618Z,98079.78
2023-03-06T19:11:14.357Z,98069.69
2023-03-06T19:13:41.314Z,98077.97
2023-03-06T19:16:08.491Z,98073.78
2023-03-06T19:18:35.571Z,98072.53
2023-03-06T19:21:28.754Z,98078.09
2023-03-06T19:23:56.093Z,98074.69
2023-03-06T19:26:23.151Z,98076.94
2023-03-06T19:28:50.508Z,98073.25
2023-03-06T19:31:20.004Z,98071.38
2023-03-06T19:33:48.067Z,98066.56
2023-03-06T19:36:17.000Z,98060.31
2023-03-06T19:38:44.003Z,98055.53
2023-03-06T19:41:13.613Z,98048.56
2023-03-06T19:43:41.335Z,98047.25
2023-03-06T19:46:12.502Z,98038.94
2023-03-06T19:48:40.516Z,98032.81
2023-03-06T19:51:07.649Z,98030.03
2023-03-06T19:53:38.786Z,98033.41
2023-03-06T19:56:17.480Z,98028.72
2023-03-06T19:58:43.944Z,98024.72
2023-03-06T20:01:13.345Z,98020.16
2023-03-06T20:03:40.764Z,98022.78
2023-03-06T20:06:11.827Z,98017.38
2023-03-06T20:08:38.798Z,98011.25
2023-03-06T20:11:06.194Z,98010.31
2023-03-06T20:13:32.929Z,98005.75
2023-03-06T20:16:03.480Z,98001.88
2023-03-06T20:18:30.074Z,98005.50
2023-03-06T20:21:01.030Z,97989.88
2023-03-06T20:23:28.656Z,97990.22
2023-03-06T20:25:55.179Z,97987.97
2023-03-06T20:28:22.412Z,97996.38
2023-03-06T20:30:48.980Z,97983.63
2023-03-06T20:33:17.097Z,97985.91
2023-03-06T20:35:44.204Z,97985.78
2023-03-06T20:38:11.070Z,97977.97
2023-03-06T20:40:41.509Z,97974.94
2023-03-06T20:43:08.315Z,97967.88
2023-03-06T20:45:35.484Z,97967.00
2023-03-06T20:48:01.923Z,97965.19
2023-03-06T20:50:28.678Z,97964.94
2023-03-06T20:52:56.502Z,97969.16
2023-03-06T20:55:23.437Z,97971.19
2023-03-06T20:57:51.208Z,97979.50
2023-03-06T21:00:19.317Z,97971.28
2023-03-06T21:02:45.679Z,97963.72
2023-03-06T21:05:13.015Z,97963.13
2023-03-06T21:07:39.667Z,97967.00
2023-03-06T21:10:07.330Z,97959.19
2023-03-06T21:12:33.780Z,97956.28
2023-03-06T21:15:00.710Z,97950.34
2023-03-06T21:17:27.456Z,97940.16
2023-03-06T21:19:53.988Z,97941.03
2023-03-06T21:22:20.385Z,97927.56
2023-03-06T21:24:47.190Z,97930.72
2023-03-06T21:27:13.599Z,97934.53
2023-03-06T21:29:40.166Z,97934.78
2023-03-06T21:32:06.599Z,97932.88
2023-03-06T21:34:33.210Z,97940.34
2023-03-06T21:36:59.602Z,97933.13
2023-03-06T21:39:26.056Z,97939.50
2023-03-06T21:41:52.654Z,97941.31
2023-03-06T21:44:19.565Z,97943.94
2023-03-06T21:46:46.058Z,97934.25
2023-03-06T21:49:12.450Z,97943.25
2023-03-06T21:51:39.511Z,97937.97
2023-03-06T21:54:06.497Z,97934.13
2023-03-06T21:56:33.438Z,97940.75
2023-03-06T21:58:59.937Z,97933.66
2023-03-06T22:01:28.899Z,97931.59
2023-03-06T22:03:55.804Z,97921.13
2023-03-06T22:06:25.677Z,97925.47
2023-03-06T22:08:52.474Z,97925.13
2023-03-06T22:11:20.763Z,97914.66
2023-03-06T22:13:48.206Z,97909.97
2023-03-06T22:16:15.766Z,97901.69
2023-03-06T22:18:47.029Z,97911.06
2023-03-06T22:21:16.398Z,97898.31
2023-03-06T22:23:42.986Z,97897.09
2023-03-06T22:26:12.615Z,97887.00
2023-03-06T22:28:40.447Z,97886.41
2023-03-06T22:31:11.949Z,97887.41
2023-03-06T22:33:39.238Z,97886.28
2023-03-06T22:36:11.950Z,97888.72
2023-03-06T22:38:40.337Z,97872.38
2023-03-06T22:41:07.855Z,97875.47
2023-03-06T22:43:35.621Z,97872.59
2023-03-06T22:46:07.232Z,97863.72
2023-03-06T22:48:34.198Z,97866.25
2023-03-06T22:51:06.046Z,97868.03
2023-03-06T22:53:33.461Z,97871.28
2023-03-06T22:56:01.753Z,97864.66
2023-03-06T22:58:34.168Z,97854.31
2023-03-06T23:01:25.489Z,97862.63
2023-03-06T23:03:54.456Z,97863.97
2023-03-06T23:06:24.792Z,97858.19
2023-03-06T23:08:57.186Z,97856.50
2023-03-06T23:11:25.049Z,97846.88
2023-03-06T23:13:53.111Z,97848.31
2023-03-06T23:16:20.794Z,97844.97
2023-03-06T23:18:47.227Z,97842.69
2023-03-06T23:21:16.434Z,97840.75
2023-03-06T23:23:44.118Z,97832.09
2023-03-06T23:26:13.880Z,97835.56
2023-03-06T23:28:41.071Z,97831.47
2023-03-06T23:31:20.034Z,97836.28
2023-03-06T23:33:46.490Z,97829.78
2023-03-06T23:36:15.476Z,97829.66
2023-03-06T23:38:42.501Z,97833.88
2023-03-06T23:41:14.650Z,97827.41
2023-03-06T23:43:41.673Z,97822.69
2023-03-06T23:46:08.316Z,97828.69
2023-03-06T23:48:36.492Z,97825.22
2023-03-06T23:51:12.805Z,97815.94
2023-03-06T23:53:39.847Z,97814.59
2023-03-06T23:56:07.499Z,97808.34
2023-03-06T23:58:34.807Z,97810.47
